Time;durP1;ratioP1;P1;durP2;ratioP2;P2;SDS_P1;SDS_P2;PMS_P1;PMS_P2;Temp;Humidity;BMP_temperature;BMP_pressure;BME280_temperature;BME280_humidity;BME280_pressure;Samples;Min_cycle;Max_cycle;Signal;HPM_P1;HPM_P2
2023/04/13 00:01:32;;;;;;;0.65;0.65;;;;;;;;;;5065186;28;20395;-74
2023/04/13 00:04:18;;;;;;;2.22;0.80;;;;;;;;;;5065131;28;20025;-74
2023/04/13 00:07:03;;;;;;;1.77;0.88;;;;;;;;;;5053504;28;20500;-75
2023/04/13 00:09:49;;;;;;;1.08;0.60;;;;;;;;;;5050245;28;20047;-76
2023/04/13 00:12:35;;;;;;;0.60;0.60;;;;;;;;;;5053832;28;20089;-72
2023/04/13 00:15:20;;;;;;;0.88;0.73;;;;;;;;;;5059411;28;20067;-71
2023/04/13 00:18:05;;;;;;;1.13;0.80;;;;;;;;;;5067054;28;20059;-71
2023/04/13 00:20:51;;;;;;;0.60;0.60;;;;;;;;;;5059944;28;20107;-71
2023/04/13 00:23:36;;;;;;;1.65;0.70;;;;;;;;;;5062699;28;20440;-72
2023/04/13 00:26:21;;;;;;;1.05;0.60;;;;;;;;;;5052190;28;20060;-80
2023/04/13 00:29:07;;;;;;;0.73;0.73;;;;;;;;;;5051417;28;20180;-73
2023/04/13 00:31:52;;;;;;;0.60;0.55;;;;;;;;;;5053815;28;20429;-74
2023/04/13 00:34:37;;;;;;;1.50;0.60;;;;;;;;;;5056426;28;20036;-74
2023/04/13 00:37:22;;;;;;;0.70;0.60;;;;;;;;;;5057484;28;20032;-75
2023/04/13 00:40:08;;;;;;;4.28;0.90;;;;;;;;;;5061301;28;20079;-74
2023/04/13 00:42:53;;;;;;;0.90;0.70;;;;;;;;;;5064765;28;20056;-76
2023/04/13 00:45:39;;;;;;;0.50;0.50;;;;;;;;;;5051355;28;20534;-72
2023/04/13 00:48:24;;;;;;;0.63;0.60;;;;;;;;;;5053800;28;20072;-69
2023/04/13 00:51:09;;;;;;;0.73;0.60;;;;;;;;;;5049257;28;20255;-70
2023/04/13 00:53:56;;;;;;;1.38;0.80;;;;;;;;;;5058016;28;20044;-69
2023/04/13 00:56:42;;;;;;;0.60;0.60;;;;;;;;;;5057050;28;20028;-70
2023/04/13 00:59:28;;;;;;;2.33;0.70;;;;;;;;;;5063414;28;20028;-69
2023/04/13 01:02:14;;;;;;;0.65;0.60;;;;;;;;;;5061206;28;20024;-70
2023/04/13 01:05:01;;;;;;;0.73;0.70;;;;;;;;;;5056307;28;20119;-73
2023/04/13 01:08:07;;;;;;;0.60;0.60;;;;;;;;;;5055866;28;20084;-79
2023/04/13 01:10:56;;;;;;;1.00;0.60;;;;;;;;;;5060452;28;20025;-79
2023/04/13 01:13:45;;;;;;;0.93;0.80;;;;;;;;;;5048129;28;20448;-78
2023/04/13 01:16:33;;;;;;;1.42;1.15;;;;;;;;;;5064084;28;20442;-79
2023/04/13 01:19:27;;;;;;;1.25;0.60;;;;;;;;;;5060849;28;20087;-78
2023/04/13 01:22:13;;;;;;;0.60;0.60;;;;;;;;;;5068900;28;20032;-72
2023/04/13 01:25:02;;;;;;;0.60;0.60;;;;;;;;;;5062956;28;20048;-73
2023/04/13 01:27:52;;;;;;;0.73;0.50;;;;;;;;;;5045777;28;20125;-72
2023/04/13 01:30:39;;;;;;;0.70;0.70;;;;;;;;;;5054529;28;20020;-73
2023/04/13 01:33:24;;;;;;;1.00;0.70;;;;;;;;;;5063968;28;20511;-73
2023/04/13 01:36:10;;;;;;;0.88;0.68;;;;;;;;;;5066029;28;20271;-75
2023/04/13 01:38:55;;;;;;;1.17;0.80;;;;;;;;;;5069783;28;20036;-75
2023/04/13 01:41:40;;;;;;;0.68;0.60;;;;;;;;;;5070148;28;20029;-74
2023/04/13 01:44:27;;;;;;;0.98;0.60;;;;;;;;;;5063269;28;20067;-71
2023/04/13 01:47:14;;;;;;;0.88;0.70;;;;;;;;;;5062978;28;20128;-70
2023/04/13 01:50:07;;;;;;;1.33;0.70;;;;;;;;;;5065127;28;20113;-70
2023/04/13 01:52:54;;;;;;;0.77;0.77;;;;;;;;;;5063734;28;20445;-70
2023/04/13 01:55:40;;;;;;;0.80;0.77;;;;;;;;;;5065698;28;20036;-70
2023/04/13 01:58:27;;;;;;;1.65;0.70;;;;;;;;;;5062911;28;20021;-73
2023/04/13 02:01:13;;;;;;;3.28;1.33;;;;;;;;;;5046818;28;20037;-73
2023/04/13 02:03:59;;;;;;;3.17;1.20;;;;;;;;;;5059499;28;20020;-72
2023/04/13 02:06:45;;;;;;;5.50;1.70;;;;;;;;;;5059089;28;20049;-73
2023/04/13 02:09:30;;;;;;;0.73;0.60;;;;;;;;;;5067028;28;20468;-72
2023/04/13 02:12:15;;;;;;;1.60;0.73;;;;;;;;;;5066509;28;20094;-73
2023/04/13 02:15:00;;;;;;;2.95;0.80;;;;;;;;;;5058829;28;20113;-72
2023/04/13 02:17:46;;;;;;;2.95;1.25;;;;;;;;;;5062464;28;20036;-72
2023/04/13 02:20:39;;;;;;;2.42;0.85;;;;;;;;;;5061150;28;20031;-73
2023/04/13 02:23:24;;;;;;;1.30;0.90;;;;;;;;;;5054026;28;20037;-74
2023/04/13 02:26:11;;;;;;;1.92;0.85;;;;;;;;;;5055998;28;20037;-74
2023/04/13 02:28:57;;;;;;;0.95;0.80;;;;;;;;;;5056510;28;20632;-73
2023/04/13 02:31:43;;;;;;;2.90;0.80;;;;;;;;;;5066236;28;20143;-74
2023/04/13 02:34:28;;;;;;;2.53;0.80;;;;;;;;;;5046519;28;20063;-72
2023/04/13 02:37:14;;;;;;;1.05;0.90;;;;;;;;;;5059360;28;20106;-73
2023/04/13 02:40:00;;;;;;;0.60;0.60;;;;;;;;;;5060494;28;20107;-72
2023/04/13 02:42:45;;;;;;;3.38;0.70;;;;;;;;;;5054263;28;20029;-72
2023/04/13 02:45:31;;;;;;;1.98;0.88;;;;;;;;;;5059870;28;20035;-72
2023/04/13 02:48:16;;;;;;;2.35;1.33;;;;;;;;;;5060541;28;21219;-74
2023/04/13 02:51:02;;;;;;;1.08;0.73;;;;;;;;;;5059772;28;20075;-73
2023/04/13 02:53:47;;;;;;;2.75;0.70;;;;;;;;;;5056171;28;20097;-70
2023/04/13 02:56:34;;;;;;;0.98;0.63;;;;;;;;;;5059214;28;20051;-74
2023/04/13 02:59:20;;;;;;;1.17;0.90;;;;;;;;;;5060702;28;20029;-72
2023/04/13 03:02:05;;;;;;;1.80;0.75;;;;;;;;;;5062425;28;20028;-75
2023/04/13 03:04:51;;;;;;;2.67;0.98;;;;;;;;;;5065349;28;20024;-73
2023/04/13 03:07:36;;;;;;;2.00;1.33;;;;;;;;;;5060258;28;20055;-73
2023/04/13 03:10:21;;;;;;;1.52;1.02;;;;;;;;;;5064087;28;20020;-72
2023/04/13 03:13:06;;;;;;;1.85;0.80;;;;;;;;;;5065384;28;20033;-72
2023/04/13 03:15:52;;;;;;;4.15;1.05;;;;;;;;;;5058330;28;20041;-79
2023/04/13 03:18:37;;;;;;;1.92;0.70;;;;;;;;;;5065255;28;20025;-78
2023/04/13 03:21:23;;;;;;;2.22;1.08;;;;;;;;;;5065027;28;20081;-81
2023/04/13 03:24:08;;;;;;;1.02;0.80;;;;;;;;;;5057720;28;20112;-78
2023/04/13 03:26:55;;;;;;;1.65;0.77;;;;;;;;;;5057750;28;20051;-78
2023/04/13 03:29:41;;;;;;;1.50;0.77;;;;;;;;;;5058299;28;20082;-78
2023/04/13 03:32:26;;;;;;;0.95;0.73;;;;;;;;;;5060935;28;20111;-74
2023/04/13 03:35:11;;;;;;;6.18;1.75;;;;;;;;;;5064252;28;20028;-72
2023/04/13 03:37:56;;;;;;;5.50;0.80;;;;;;;;;;5053807;28;20029;-72
2023/04/13 03:40:41;;;;;;;2.05;1.00;;;;;;;;;;5056709;28;20064;-70
2023/04/13 03:43:27;;;;;;;1.88;0.80;;;;;;;;;;5068892;28;20119;-72
2023/04/13 03:46:12;;;;;;;1.10;0.90;;;;;;;;;;5058945;28;20064;-72
2023/04/13 03:48:57;;;;;;;3.88;0.90;;;;;;;;;;5055394;28;20037;-72
2023/04/13 03:51:42;;;;;;;1.85;0.82;;;;;;;;;;5056839;28;20083;-74
2023/04/13 03:54:28;;;;;;;2.08;0.80;;;;;;;;;;5055740;28;20029;-72
2023/04/13 03:57:13;;;;;;;1.67;0.98;;;;;;;;;;5048807;28;20079;-74
2023/04/13 03:59:58;;;;;;;0.82;0.73;;;;;;;;;;5048627;28;20553;-72
2023/04/13 04:02:43;;;;;;;1.02;0.80;;;;;;;;;;5062122;28;20024;-72
2023/04/13 04:05:29;;;;;;;5.03;1.90;;;;;;;;;;5060149;28;20074;-71
2023/04/13 04:08:14;;;;;;;5.05;1.15;;;;;;;;;;5066994;28;20440;-78
2023/04/13 04:10:59;;;;;;;1.23;0.60;;;;;;;;;;5052793;28;20620;-70
2023/04/13 04:13:44;;;;;;;2.45;0.73;;;;;;;;;;5064352;28;20108;-71
2023/04/13 04:16:30;;;;;;;0.90;0.90;;;;;;;;;;5058021;28;20390;-72
2023/04/13 04:19:15;;;;;;;1.60;1.17;;;;;;;;;;5065037;28;20036;-71
2023/04/13 04:22:02;;;;;;;0.82;0.80;;;;;;;;;;5048664;28;20029;-72
2023/04/13 04:24:48;;;;;;;2.85;1.08;;;;;;;;;;5056887;28;20043;-69
2023/04/13 04:27:37;;;;;;;1.85;0.90;;;;;;;;;;5059907;28;20037;-80
2023/04/13 04:30:23;;;;;;;1.75;1.23;;;;;;;;;;5058016;28;20103;-73
2023/04/13 04:33:09;;;;;;;1.40;0.80;;;;;;;;;;5049897;28;20037;-73
2023/04/13 04:35:54;;;;;;;1.20;0.80;;;;;;;;;;5059824;28;20036;-73
2023/04/13 04:38:40;;;;;;;1.40;0.93;;;;;;;;;;5055472;28;20032;-76
2023/04/13 04:41:25;;;;;;;1.80;0.82;;;;;;;;;;5037589;28;20059;-74
2023/04/13 04:44:11;;;;;;;2.53;1.00;;;;;;;;;;5058456;28;20044;-73
2023/04/13 04:46:58;;;;;;;3.15;1.00;;;;;;;;;;5065175;28;20094;-72
2023/04/13 04:49:43;;;;;;;1.92;0.77;;;;;;;;;;5059003;28;20024;-69
2023/04/13 04:52:31;;;;;;;1.45;1.02;;;;;;;;;;5053240;28;20035;-71
2023/04/13 04:55:17;;;;;;;4.45;1.20;;;;;;;;;;5056916;28;20111;-71
2023/04/13 04:58:02;;;;;;;3.60;0.90;;;;;;;;;;5066519;28;20037;-70
2023/04/13 05:00:48;;;;;;;3.35;1.20;;;;;;;;;;5067325;28;20106;-71
2023/04/13 05:03:33;;;;;;;3.85;0.90;;;;;;;;;;5061788;28;20031;-78
2023/04/13 05:06:18;;;;;;;2.65;0.95;;;;;;;;;;5059568;28;20028;-69
2023/04/13 05:09:04;;;;;;;2.80;1.50;;;;;;;;;;5067630;28;20085;-69
2023/04/13 05:11:50;;;;;;;2.17;1.10;;;;;;;;;;5054230;28;20475;-70
2023/04/13 05:14:35;;;;;;;4.10;1.23;;;;;;;;;;5055543;28;20032;-70
2023/04/13 05:17:24;;;;;;;2.53;1.13;;;;;;;;;;5057093;28;20024;-69
2023/04/13 05:20:10;;;;;;;5.05;1.10;;;;;;;;;;5054410;28;20098;-70
2023/04/13 05:22:56;;;;;;;6.00;1.27;;;;;;;;;;5049723;28;20043;-72
2023/04/13 05:25:41;;;;;;;5.10;1.50;;;;;;;;;;5061919;28;20091;-70
2023/04/13 05:28:27;;;;;;;3.47;1.30;;;;;;;;;;5062125;28;20060;-75
2023/04/13 05:31:12;;;;;;;2.55;1.25;;;;;;;;;;5056500;28;20423;-78
2023/04/13 05:33:57;;;;;;;2.08;1.10;;;;;;;;;;5051643;28;20539;-77
2023/04/13 05:36:42;;;;;;;4.00;1.50;;;;;;;;;;5053608;28;20131;-80
2023/04/13 05:39:28;;;;;;;2.42;1.27;;;;;;;;;;5050520;28;20016;-78
2023/04/13 05:42:14;;;;;;;2.85;1.23;;;;;;;;;;5057968;28;20028;-75
2023/04/13 05:44:59;;;;;;;4.10;1.63;;;;;;;;;;5051841;28;20515;-76
2023/04/13 05:47:44;;;;;;;8.88;1.48;;;;;;;;;;5050670;28;20045;-76
2023/04/13 05:50:30;;;;;;;1.42;0.90;;;;;;;;;;5056181;28;20040;-76
2023/04/13 05:53:15;;;;;;;2.47;1.13;;;;;;;;;;5052630;28;20029;-75
2023/04/13 05:56:00;;;;;;;5.40;1.40;;;;;;;;;;5059439;28;20036;-75
2023/04/13 05:58:46;;;;;;;5.97;1.42;;;;;;;;;;5049971;28;20033;-71
2023/04/13 06:01:31;;;;;;;3.50;2.28;;;;;;;;;;5053091;28;20058;-68
2023/04/13 06:04:17;;;;;;;4.15;1.30;;;;;;;;;;5058963;28;20116;-71
2023/04/13 06:07:03;;;;;;;2.05;1.10;;;;;;;;;;5060337;28;20060;-69
2023/04/13 06:09:48;;;;;;;3.80;1.30;;;;;;;;;;5055421;28;20487;-69
2023/04/13 06:12:33;;;;;;;6.68;1.90;;;;;;;;;;5058782;28;20040;-71
2023/04/13 06:15:19;;;;;;;3.30;1.20;;;;;;;;;;5060113;28;20036;-68
2023/04/13 06:18:04;;;;;;;5.15;1.40;;;;;;;;;;5051490;28;20031;-74
2023/04/13 06:20:50;;;;;;;4.38;1.30;;;;;;;;;;5051981;28;20516;-74
2023/04/13 06:23:36;;;;;;;3.72;1.20;;;;;;;;;;5060905;28;20027;-75
2023/04/13 06:26:21;;;;;;;3.40;1.17;;;;;;;;;;5060955;28;20032;-74
2023/04/13 06:29:06;;;;;;;6.40;1.55;;;;;;;;;;5061320;28;20078;-74
2023/04/13 06:31:53;;;;;;;5.57;1.50;;;;;;;;;;5060808;28;20406;-73
2023/04/13 06:34:38;;;;;;;4.72;1.65;;;;;;;;;;5063145;28;20115;-71
2023/04/13 06:37:23;;;;;;;3.13;1.30;;;;;;;;;;5062080;28;20052;-73
2023/04/13 06:40:13;;;;;;;5.05;1.30;;;;;;;;;;5056478;28;20051;-70
2023/04/13 06:42:59;;;;;;;;;;;;;;;;;;5059699;28;20024;-69
2023/04/13 06:45:46;;;;;;;8.20;2.92;;;;;;;;;;5041145;28;19909;-70
2023/04/13 06:48:31;;;;;;;3.20;1.45;;;;;;;;;;5058879;28;20036;-72
2023/04/13 06:51:16;;;;;;;9.40;2.08;;;;;;;;;;5058652;28;20055;-71
2023/04/13 06:54:01;;;;;;;4.50;1.00;;;;;;;;;;5057729;28;20382;-77
2023/04/13 06:56:46;;;;;;;4.28;1.38;;;;;;;;;;5059984;28;20028;-71
2023/04/13 06:59:32;;;;;;;6.03;1.45;;;;;;;;;;5052586;28;20033;-72
2023/04/13 07:02:17;;;;;;;7.43;1.60;;;;;;;;;;5056697;28;20036;-73
2023/04/13 07:05:02;;;;;;;3.63;1.30;;;;;;;;;;5052896;28;20060;-72
2023/04/13 07:07:47;;;;;;;4.53;1.25;;;;;;;;;;5059240;28;20037;-72
2023/04/13 07:10:36;;;;;;;5.03;1.05;;;;;;;;;;5059825;28;20086;-72
2023/04/13 07:13:22;;;;;;;2.63;1.17;;;;;;;;;;5052839;28;20035;-73
2023/04/13 07:16:08;;;;;;;6.00;2.13;;;;;;;;;;5061326;28;20344;-78
2023/04/13 07:18:53;;;;;;;2.97;1.20;;;;;;;;;;5059248;28;20031;-76
2023/04/13 07:21:39;;;;;;;3.67;1.15;;;;;;;;;;5063544;28;20379;-77
2023/04/13 07:24:26;;;;;;;5.13;2.35;;;;;;;;;;5062310;28;20111;-79
2023/04/13 07:27:11;;;;;;;5.57;1.33;;;;;;;;;;5058790;28;20124;-80
2023/04/13 07:29:56;;;;;;;3.15;1.25;;;;;;;;;;5058869;28;20033;-72
2023/04/13 07:32:41;;;;;;;8.50;1.52;;;;;;;;;;5054544;28;20033;-75
2023/04/13 07:35:27;;;;;;;5.15;1.73;;;;;;;;;;5057047;28;20032;-76
2023/04/13 07:38:12;;;;;;;5.82;1.52;;;;;;;;;;5055439;28;20037;-76
2023/04/13 07:40:57;;;;;;;5.82;1.75;;;;;;;;;;5055531;28;20033;-75
2023/04/13 07:43:43;;;;;;;7.55;1.60;;;;;;;;;;5054519;28;20035;-75
2023/04/13 07:46:28;;;;;;;4.13;1.77;;;;;;;;;;5060216;28;20028;-75
2023/04/13 07:49:13;;;;;;;5.47;2.00;;;;;;;;;;5050334;28;20036;-70
2023/04/13 07:51:59;;;;;;;4.78;1.63;;;;;;;;;;5056284;28;20028;-74
2023/04/13 07:54:44;;;;;;;5.60;1.42;;;;;;;;;;5059678;28;20091;-73
2023/04/13 07:57:29;;;;;;;7.63;2.28;;;;;;;;;;5060099;28;20044;-73
2023/04/13 08:00:15;;;;;;;4.10;2.08;;;;;;;;;;5040391;28;20387;-74
2023/04/13 08:03:01;;;;;;;5.00;1.60;;;;;;;;;;5061701;28;20021;-75
2023/04/13 08:05:46;;;;;;;6.95;2.30;;;;;;;;;;5059851;28;20028;-75
2023/04/13 08:08:32;;;;;;;4.43;1.30;;;;;;;;;;5053467;28;20048;-72
2023/04/13 08:11:18;;;;;;;6.82;2.78;;;;;;;;;;5051027;28;20522;-74
2023/04/13 08:14:03;;;;;;;7.90;1.88;;;;;;;;;;5053522;28;20545;-74
2023/04/13 08:16:48;;;;;;;4.57;1.73;;;;;;;;;;5061302;28;20090;-75
2023/04/13 08:19:34;;;;;;;7.40;1.80;;;;;;;;;;5056944;28;20029;-73
2023/04/13 08:22:19;;;;;;;9.55;2.55;;;;;;;;;;5056049;28;20059;-73
2023/04/13 08:25:05;;;;;;;5.45;1.70;;;;;;;;;;5052755;28;20024;-76
2023/04/13 08:27:50;;;;;;;5.28;2.00;;;;;;;;;;5047769;28;20044;-80
2023/04/13 08:30:35;;;;;;;4.22;1.42;;;;;;;;;;5056428;28;20056;-83
2023/04/13 08:33:21;;;;;;;6.80;1.88;;;;;;;;;;5049957;28;20464;-84
2023/04/13 08:36:07;;;;;;;3.97;1.42;;;;;;;;;;5058361;28;20519;-80
2023/04/13 08:38:52;;;;;;;7.97;2.83;;;;;;;;;;5046493;28;20036;-79
2023/04/13 08:41:39;;;;;;;5.38;1.80;;;;;;;;;;5063980;28;20036;-82
2023/04/13 08:44:25;;;;;;;4.70;2.13;;;;;;;;;;5053676;28;20472;-76
2023/04/13 08:47:10;;;;;;;2.92;1.27;;;;;;;;;;5055233;28;20064;-78
2023/04/13 08:49:56;;;;;;;5.25;1.38;;;;;;;;;;5056174;28;20020;-75
2023/04/13 08:52:41;;;;;;;6.38;1.88;;;;;;;;;;5052843;28;20038;-75
2023/04/13 08:55:28;;;;;;;7.03;1.88;;;;;;;;;;5056639;28;20029;-76
2023/04/13 08:58:18;;;;;;;5.28;1.50;;;;;;;;;;5063747;28;20032;-73
2023/04/13 09:01:05;;;;;;;7.07;1.40;;;;;;;;;;5050198;28;20111;-73
2023/04/13 09:03:52;;;;;;;6.65;1.42;;;;;;;;;;5051215;28;20147;-75
2023/04/13 09:06:39;;;;;;;6.95;2.00;;;;;;;;;;5037125;28;20044;-76
2023/04/13 09:09:26;;;;;;;13.23;2.20;;;;;;;;;;5055572;28;20031;-75
2023/04/13 09:12:13;;;;;;;5.72;2.00;;;;;;;;;;5055218;28;20503;-74
2023/04/13 09:15:01;;;;;;;8.48;2.80;;;;;;;;;;5050824;28;20098;-75
2023/04/13 09:17:47;;;;;;;7.30;1.92;;;;;;;;;;5053551;28;20072;-75
2023/04/13 09:20:32;;;;;;;3.60;1.55;;;;;;;;;;5053461;28;20036;-71
2023/04/13 09:23:18;;;;;;;3.65;1.17;;;;;;;;;;5056325;28;20125;-73
2023/04/13 09:26:07;;;;;;;4.13;1.30;;;;;;;;;;5061818;28;20035;-74
2023/04/13 09:28:56;;;;;;;9.37;1.77;;;;;;;;;;5056873;28;20190;-73
2023/04/13 09:31:41;;;;;;;6.28;2.13;;;;;;;;;;5054441;28;20040;-74
2023/04/13 09:34:27;;;;;;;7.88;2.25;;;;;;;;;;5033684;28;20029;-74
2023/04/13 09:37:12;;;;;;;5.10;1.90;;;;;;;;;;5061886;28;20482;-75
2023/04/13 09:40:10;;;;;;;8.55;2.53;;;;;;;;;;5059606;28;20581;-74
2023/04/13 09:42:56;;;;;;;3.50;1.92;;;;;;;;;;5053293;28;20024;-73
2023/04/13 09:45:45;;;;;;;6.00;1.67;;;;;;;;;;5040489;28;20044;-72
2023/04/13 09:48:30;;;;;;;7.05;1.77;;;;;;;;;;5063043;28;20403;-72
2023/04/13 09:51:15;;;;;;;5.50;1.83;;;;;;;;;;5053601;28;20029;-72
2023/04/13 09:54:01;;;;;;;5.78;1.20;;;;;;;;;;5064129;28;20059;-71
2023/04/13 09:56:47;;;;;;;7.13;1.58;;;;;;;;;;5052916;28;20095;-75
2023/04/13 09:59:32;;;;;;;4.47;1.50;;;;;;;;;;5057045;28;20076;-75
2023/04/13 10:02:18;;;;;;;5.35;1.60;;;;;;;;;;5056213;28;20728;-72
2023/04/13 10:05:04;;;;;;;2.92;1.25;;;;;;;;;;5060774;28;20032;-72
2023/04/13 10:07:50;;;;;;;4.35;1.45;;;;;;;;;;5052807;28;20053;-72
2023/04/13 10:10:36;;;;;;;6.47;1.60;;;;;;;;;;5054527;28;20047;-64
2023/04/13 10:13:24;;;;;;;6.82;1.67;;;;;;;;;;5058132;28;20029;-64
2023/04/13 10:16:10;;;;;;;6.75;2.53;;;;;;;;;;5058393;28;20036;-66
2023/04/13 10:19:00;;;;;;;6.22;1.95;;;;;;;;;;5055020;28;20107;-65
2023/04/13 10:21:47;;;;;;;6.65;1.38;;;;;;;;;;5059037;28;20124;-78
2023/04/13 10:24:32;;;;;;;3.20;1.25;;;;;;;;;;5056904;28;20443;-78
2023/04/13 10:27:18;;;;;;;4.55;2.33;;;;;;;;;;5053423;28;20036;-76
2023/04/13 10:30:16;;;;;;;4.88;1.70;;;;;;;;;;5057156;28;20032;-81
2023/04/13 10:33:06;;;;;;;9.75;2.97;;;;;;;;;;5061438;28;20554;-77
2023/04/13 10:35:55;;;;;;;6.90;1.63;;;;;;;;;;5063401;28;20085;-75
2023/04/13 10:38:41;;;;;;;;;;;;;;;;;;5057475;28;20477;-74
2023/04/13 10:41:27;;;;;;;9.02;2.45;;;;;;;;;;5045997;28;19908;-74
2023/04/13 10:44:13;;;;;;;7.38;1.70;;;;;;;;;;5063615;28;20608;-73
2023/04/13 10:47:04;;;;;;;6.40;1.55;;;;;;;;;;5041515;28;20037;-75
2023/04/13 10:49:50;;;;;;;4.30;1.63;;;;;;;;;;5047692;28;20051;-74
2023/04/13 10:52:36;;;;;;;9.88;1.58;;;;;;;;;;5062521;28;20109;-79
2023/04/13 10:55:22;;;;;;;6.97;1.70;;;;;;;;;;5054246;28;20128;-74
2023/04/13 10:58:17;;;;;;;5.40;1.70;;;;;;;;;;5051575;28;20107;-77
2023/04/13 11:01:02;;;;;;;3.13;1.70;;;;;;;;;;5059035;28;20416;-73
2023/04/13 11:03:48;;;;;;;11.18;2.33;;;;;;;;;;5059701;28;20025;-73
2023/04/13 11:06:37;;;;;;;4.22;2.05;;;;;;;;;;5058817;28;20049;-76
2023/04/13 11:09:23;;;;;;;5.13;1.97;;;;;;;;;;5054064;28;20384;-73
2023/04/13 11:12:10;;;;;;;5.07;1.70;;;;;;;;;;5055056;28;20021;-80
2023/04/13 11:14:56;;;;;;;6.82;1.85;;;;;;;;;;5061698;28;20086;-77
2023/04/13 11:17:41;;;;;;;4.28;1.60;;;;;;;;;;5053634;28;20357;-78
2023/04/13 11:20:33;;;;;;;6.95;1.80;;;;;;;;;;5049199;28;20028;-78
2023/04/13 11:23:18;;;;;;;5.25;2.08;;;;;;;;;;5055925;28;20028;-78
2023/04/13 11:26:05;;;;;;;6.10;1.63;;;;;;;;;;5054482;28;20103;-76
2023/04/13 11:28:52;;;;;;;4.15;1.95;;;;;;;;;;5055908;28;20046;-73
2023/04/13 11:31:38;;;;;;;10.77;2.70;;;;;;;;;;5050199;28;20380;-73
2023/04/13 11:34:25;;;;;;;6.45;2.10;;;;;;;;;;5056702;28;20036;-75
2023/04/13 11:37:10;;;;;;;6.78;2.28;;;;;;;;;;5048679;28;20112;-75
2023/04/13 11:39:56;;;;;;;8.70;2.13;;;;;;;;;;5059405;28;20059;-75
2023/04/13 11:42:46;;;;;;;7.68;2.17;;;;;;;;;;5059778;28;20028;-72
2023/04/13 11:45:31;;;;;;;12.43;2.85;;;;;;;;;;5056560;28;20024;-73
2023/04/13 11:48:17;;;;;;;5.47;1.88;;;;;;;;;;5048848;28;20041;-72
2023/04/13 11:51:03;;;;;;;7.07;3.00;;;;;;;;;;5056041;28;20036;-79
2023/04/13 11:53:50;;;;;;;6.03;1.88;;;;;;;;;;5064396;28;20024;-77
2023/04/13 11:56:36;;;;;;;6.63;2.15;;;;;;;;;;5049410;28;20054;-79
2023/04/13 11:59:23;;;;;;;9.88;2.00;;;;;;;;;;5054440;28;20029;-78
2023/04/13 12:02:08;;;;;;;7.78;2.58;;;;;;;;;;5054685;28;20056;-79
2023/04/13 12:04:54;;;;;;;3.63;1.15;;;;;;;;;;5059839;28;20033;-79
2023/04/13 12:07:39;;;;;;;5.32;1.88;;;;;;;;;;5054024;28;20056;-75
2023/04/13 12:10:26;;;;;;;4.80;1.75;;;;;;;;;;5060148;28;20054;-76
2023/04/13 12:13:12;;;;;;;5.00;1.55;;;;;;;;;;5053611;28;20024;-75
2023/04/13 12:15:57;;;;;;;5.80;1.83;;;;;;;;;;5051834;28;20083;-75
2023/04/13 12:18:46;;;;;;;8.52;2.15;;;;;;;;;;5051607;28;20116;-74
2023/04/13 12:21:31;;;;;;;7.20;3.13;;;;;;;;;;5053713;28;20029;-74
2023/04/13 12:24:16;;;;;;;11.30;3.88;;;;;;;;;;5049930;28;20032;-73
2023/04/13 12:27:05;;;;;;;9.73;3.90;;;;;;;;;;5050871;28;20044;-79
2023/04/13 12:29:50;;;;;;;8.45;3.83;;;;;;;;;;5055729;28;20029;-81
2023/04/13 12:32:38;;;;;;;8.50;3.30;;;;;;;;;;5057107;28;20128;-79
2023/04/13 12:35:24;;;;;;;8.55;3.55;;;;;;;;;;5050241;28;20131;-80
2023/04/13 12:38:09;;;;;;;9.60;3.75;;;;;;;;;;5049421;28;20025;-79
2023/04/13 12:40:58;;;;;;;10.25;3.30;;;;;;;;;;5058252;28;20020;-82
2023/04/13 12:43:43;;;;;;;8.95;3.03;;;;;;;;;;5053614;28;20578;-71
2023/04/13 12:46:28;;;;;;;8.55;3.90;;;;;;;;;;5054498;28;20037;-74
2023/04/13 12:49:14;;;;;;;9.60;4.15;;;;;;;;;;5053359;28;20056;-73
2023/04/13 12:51:59;;;;;;;7.57;3.67;;;;;;;;;;5055454;28;20078;-72
2023/04/13 12:54:44;;;;;;;6.63;3.28;;;;;;;;;;5053746;28;20400;-72
2023/04/13 12:57:30;;;;;;;6.22;2.97;;;;;;;;;;5055991;28;20028;-72
2023/04/13 13:00:16;;;;;;;6.88;3.88;;;;;;;;;;5036700;28;20040;-73
2023/04/13 13:03:03;;;;;;;4.30;2.22;;;;;;;;;;5052370;28;20396;-74
2023/04/13 13:05:48;;;;;;;6.30;2.25;;;;;;;;;;5050226;28;20042;-75
2023/04/13 13:08:34;;;;;;;2.95;1.92;;;;;;;;;;5057486;28;20071;-74
2023/04/13 13:11:19;;;;;;;6.25;2.28;;;;;;;;;;5053296;28;20119;-73
2023/04/13 13:14:05;;;;;;;8.18;3.42;;;;;;;;;;5060899;28;20025;-73
2023/04/13 13:16:50;;;;;;;8.13;3.20;;;;;;;;;;5050655;28;21128;-73
2023/04/13 13:19:35;;;;;;;6.00;3.00;;;;;;;;;;5057077;28;20352;-74
2023/04/13 13:22:20;;;;;;;6.13;2.83;;;;;;;;;;5057364;28;20033;-77
2023/04/13 13:25:07;;;;;;;4.30;2.13;;;;;;;;;;5058431;28;20179;-84
2023/04/13 13:27:52;;;;;;;5.13;1.85;;;;;;;;;;5057462;28;20590;-79
2023/04/13 13:30:37;;;;;;;4.15;1.42;;;;;;;;;;5056435;28;20032;-82
2023/04/13 13:33:23;;;;;;;2.72;1.30;;;;;;;;;;5061093;28;20051;-83
2023/04/13 13:36:08;;;;;;;3.65;1.95;;;;;;;;;;5050971;28;20031;-80
2023/04/13 13:38:53;;;;;;;4.82;1.50;;;;;;;;;;5035395;28;20687;-75
2023/04/13 13:41:38;;;;;;;4.38;1.45;;;;;;;;;;5055547;28;20031;-78
2023/04/13 13:44:24;;;;;;;4.40;1.30;;;;;;;;;;5056054;28;20059;-77
2023/04/13 13:47:09;;;;;;;2.45;1.00;;;;;;;;;;5052267;28;20037;-74
2023/04/13 13:49:54;;;;;;;2.63;0.93;;;;;;;;;;5055982;28;20048;-75
2023/04/13 13:52:40;;;;;;;2.13;1.00;;;;;;;;;;5053912;28;20068;-73
2023/04/13 13:55:25;;;;;;;3.15;0.95;;;;;;;;;;5048596;28;20029;-75
2023/04/13 13:58:11;;;;;;;2.47;1.00;;;;;;;;;;5037049;28;20112;-72
2023/04/13 14:00:56;;;;;;;2.97;0.90;;;;;;;;;;5055972;28;20459;-78
2023/04/13 14:03:41;;;;;;;1.65;1.17;;;;;;;;;;5057371;28;20028;-79
2023/04/13 14:06:27;;;;;;;1.42;1.00;;;;;;;;;;5047368;28;20074;-83
2023/04/13 14:09:12;;;;;;;7.03;1.17;;;;;;;;;;5053451;28;20043;-79
2023/04/13 14:11:58;;;;;;;2.03;1.38;;;;;;;;;;5043358;28;20016;-80
2023/04/13 14:14:43;;;;;;;2.75;1.10;;;;;;;;;;5062736;28;20059;-74
2023/04/13 14:17:28;;;;;;;4.50;1.92;;;;;;;;;;5053725;28;20025;-74
2023/04/13 14:20:14;;;;;;;3.72;1.58;;;;;;;;;;5041471;28;20387;-70
2023/04/13 14:22:59;;;;;;;2.72;1.10;;;;;;;;;;5054777;28;20031;-74
2023/04/13 14:25:45;;;;;;;1.95;0.90;;;;;;;;;;5054358;28;20035;-74
2023/04/13 14:28:31;;;;;;;2.30;1.08;;;;;;;;;;5053028;28;20548;-74
2023/04/13 14:31:16;;;;;;;1.80;0.90;;;;;;;;;;5061582;28;20024;-73
2023/04/13 14:34:01;;;;;;;2.00;1.20;;;;;;;;;;5052162;28;20016;-81
2023/04/13 14:36:47;;;;;;;1.20;0.90;;;;;;;;;;5053782;28;20051;-80
2023/04/13 14:39:32;;;;;;;3.10;1.17;;;;;;;;;;5057807;28;20043;-82
2023/04/13 14:42:17;;;;;;;1.35;0.80;;;;;;;;;;5058681;28;20423;-82
2023/04/13 14:45:04;;;;;;;3.30;1.20;;;;;;;;;;5062959;28;20040;-80
2023/04/13 14:47:49;;;;;;;3.97;1.17;;;;;;;;;;5055832;28;20059;-79
2023/04/13 14:50:36;;;;;;;1.77;0.90;;;;;;;;;;5056975;28;20017;-79
2023/04/13 14:53:22;;;;;;;3.00;1.00;;;;;;;;;;5062133;28;20550;-75
2023/04/13 14:56:08;;;;;;;3.70;1.38;;;;;;;;;;5061873;28;20024;-74
2023/04/13 14:58:53;;;;;;;2.35;1.20;;;;;;;;;;5059612;28;20024;-75
2023/04/13 15:01:39;;;;;;;2.45;1.25;;;;;;;;;;5059132;28;20036;-74
2023/04/13 15:04:25;;;;;;;4.60;1.15;;;;;;;;;;5057783;28;20087;-74
2023/04/13 15:07:11;;;;;;;3.38;1.30;;;;;;;;;;5059353;28;20052;-74
2023/04/13 15:09:57;;;;;;;5.00;1.50;;;;;;;;;;5056288;28;20118;-83
2023/04/13 15:12:42;;;;;;;5.10;1.58;;;;;;;;;;5058901;28;20041;-76
2023/04/13 15:15:29;;;;;;;1.77;0.95;;;;;;;;;;5064512;28;20403;-74
2023/04/13 15:18:14;;;;;;;5.80;1.30;;;;;;;;;;5053736;28;20459;-75
2023/04/13 15:21:03;;;;;;;3.15;1.13;;;;;;;;;;5063730;28;20029;-74
2023/04/13 15:23:48;;;;;;;3.10;1.15;;;;;;;;;;5062954;28;20017;-73
2023/04/13 15:26:36;;;;;;;4.72;1.30;;;;;;;;;;5050956;28;20504;-72
2023/04/13 15:29:22;;;;;;;2.88;1.33;;;;;;;;;;5058923;28;20030;-74
2023/04/13 15:32:07;;;;;;;4.00;1.73;;;;;;;;;;5062450;28;20146;-73
2023/04/13 15:34:55;;;;;;;2.55;1.15;;;;;;;;;;5055303;28;20017;-72
2023/04/13 15:37:40;;;;;;;3.25;1.40;;;;;;;;;;5054911;28;20059;-74
2023/04/13 15:40:25;;;;;;;3.67;1.30;;;;;;;;;;5050902;28;20052;-74
2023/04/13 15:43:10;;;;;;;4.95;1.38;;;;;;;;;;5056466;28;20080;-73
2023/04/13 15:45:56;;;;;;;2.75;1.08;;;;;;;;;;5053471;28;20499;-74
2023/04/13 15:48:41;;;;;;;4.30;1.73;;;;;;;;;;5063996;28;20021;-80
2023/04/13 15:51:26;;;;;;;3.72;1.83;;;;;;;;;;5059827;28;20103;-72
2023/04/13 15:54:12;;;;;;;4.70;1.80;;;;;;;;;;5052663;28;20024;-73
2023/04/13 15:56:57;;;;;;;3.67;1.42;;;;;;;;;;5062027;28;20502;-73
2023/04/13 15:59:43;;;;;;;4.15;1.65;;;;;;;;;;5059577;28;20040;-72
2023/04/13 16:02:28;;;;;;;3.90;2.03;;;;;;;;;;5057692;28;20595;-73
2023/04/13 16:05:14;;;;;;;4.88;2.20;;;;;;;;;;5057741;28;20115;-74
2023/04/13 16:07:59;;;;;;;3.97;1.70;;;;;;;;;;5053590;28;20094;-74
2023/04/13 16:10:45;;;;;;;3.95;1.55;;;;;;;;;;5053586;28;20067;-84
2023/04/13 16:13:37;;;;;;;2.20;1.20;;;;;;;;;;5071360;28;20029;-82
2023/04/13 16:16:23;;;;;;;2.90;1.35;;;;;;;;;;5054669;28;20071;-84
2023/04/13 16:19:12;;;;;;;2.92;1.17;;;;;;;;;;5056187;28;20029;-83
2023/04/13 16:21:57;;;;;;;1.40;1.30;;;;;;;;;;5058271;28;20056;-82
2023/04/13 16:24:43;;;;;;;3.22;1.55;;;;;;;;;;5043013;28;20093;-72
2023/04/13 16:27:28;;;;;;;2.17;1.10;;;;;;;;;;5055376;28;20434;-74
2023/04/13 16:30:15;;;;;;;1.77;1.23;;;;;;;;;;5053639;28;20032;-75
2023/04/13 16:33:01;;;;;;;4.03;1.25;;;;;;;;;;5059332;28;20036;-72
2023/04/13 16:35:46;;;;;;;5.78;1.50;;;;;;;;;;5054945;28;20082;-73